Bouton, IA (50039)

8:43 PM CDT on August 27, 2015 (GMT -0500)
Perry Municipal | | Change Station
CLOSE
Current Station
Airport
Location: Perry,
Elevation: 1014 ft
Nearby Weather Stations

Elev 1014 ft 41.83 °N, 94.16 °W | Updated 8 minutes ago

Partly Cloudy
Partly Cloudy
66 °F
Feels Like 66 °F
N
7
Wind Variable Wind from ESE

Today
High -- | Low -- °F
--% Chance of Precip.
Yesterday
High -- | Low -- °F
Precip. -- in
6:36 AM 7:58 PM
Waxing Gibbous, 96% visible
Pressure 29.99 in
Visibility 10.0 miles
Clouds Clear
Dew Point 63 °F
Humidity 92%
Rainfall 0.07 in
Snow Depth Not available.
UV 0 out of 12
Pollen 10.10 out of 12
Air Quality Not available.
Flu Activity Not available.
METAR KPRO 280135Z AUTO 11006KT 10SM CLR 19/17 A2999 RMK AO2 T01860173
Pressure 29.99 in
Visibility 10.0 miles
Clouds Clear
Dew Point 63 °F
Humidity 92%
Rainfall 0.07 in
Snow Depth Not available.
UV 0 out of 12
Pollen 10.10 out of 12
Air Quality Not available.
Flu Activity Not available.
METAR KPRO 280135Z AUTO 11006KT 10SM CLR 19/17 A2999 RMK AO2 T01860173

10-Day Weather Forecast

×

Almanac

Astronomy

Aug. 27, 2015 Rise Set
Actual Time
Civil Twilight
Nautical Twilight
Astronomical Twilight
Moon
Length of Visible Light
Length of Day
Tomorrow will be .
, % of the Moon is Illuminated

Today's Extremes

State Highs State Lows

Community

WunderPhotos

Upload Photos

1,850,296 photos uploaded!

WunderBlogs® & News

Nearby

Air Quality

  Air Quality AQ Index Pollutant
Not available.

Snow Depth

Station Depth Elevation

Earthquake Activity

City Distance Mag. Time & Date
Minimum magnitude displayed is 2.5.

Coastal Water Temperatures

Place Temperature

Stations

Nearby Weather Stations

Station Location Temp. Windchill Dew Point Humidity Wind Precip. Elev Updated Type